Back to Top

Language: 

My Weather Underground Personal Weather Station Historical Data with Graphs...

Delerius Weather Station Historical Data
Daily Summary for July 2, 2017 Units:  English    Metric   Both
« Previous Day
Next Day »
Daily Weekly Monthly Yearly Custom
  High: Low: Average:
Temperature: 71.2 °F 50.2 °F 61.4 °F
Dew Point: 53.5 °F 46.8 °F 50.3 °F
Humidity: 88 % 45 % 68 %
Wind Speed: 13.0 mph 0.0 mph 6.7 mph
Wind Gust: 24.0 mph - -
Wind:- - WNW
Pressure: 30.14 in 29.99 in -
Precipitation: 0.00 in    
Historical Graphs
 
 
Tabular Data for July 2, 2017
Time Temperature Dew Point Pressure Wind Wind Speed Wind Gust Humidity Rainfall Rate (Hourly) solar Conditions
00:01 58.6 °F 53.5 °F 29.99 in NW 8.0 mph 18.0 mph 83 % 0.00 in 0 W/m2
00:06 58.6 °F 53.5 °F 29.99 in WNW 7.0 mph 18.0 mph 83 % 0.00 in 0 W/m2
00:12 58.6 °F 53.2 °F 30.00 in WNW 7.0 mph 14.0 mph 82 % 0.00 in 0 W/m2
00:17 58.5 °F 52.3 °F 30.00 in WNW 9.0 mph 20.0 mph 80 % 0.00 in 0 W/m2
00:22 58.3 °F 52.1 °F 30.00 in WNW 10.0 mph 20.0 mph 80 % 0.00 in 0 W/m2
00:27 57.9 °F 51.8 °F 30.00 in WNW 10.0 mph 18.0 mph 80 % 0.00 in 0 W/m2
00:32 57.7 °F 51.6 °F 30.00 in WNW 9.0 mph 16.0 mph 80 % 0.00 in 0 W/m2
00:37 57.6 °F 51.4 °F 30.00 in WNW 7.0 mph 13.0 mph 80 % 0.00 in 0 W/m2
00:42 57.4 °F 51.3 °F 30.00 in WNW 7.0 mph 15.0 mph 80 % 0.00 in 0 W/m2
00:47 56.8 °F 50.7 °F 30.00 in WNW 7.0 mph 15.0 mph 80 % 0.00 in 0 W/m2
00:52 56.7 °F 50.9 °F 30.00 in WNW 6.0 mph 12.0 mph 81 % 0.00 in 0 W/m2
00:57 56.5 °F 50.7 °F 30.00 in WNW 5.0 mph 10.0 mph 81 % 0.00 in 0 W/m2
01:02 56.1 °F 50.4 °F 30.00 in NW 6.0 mph 13.0 mph 81 % 0.00 in 0 W/m2
01:07 55.9 °F 50.2 °F 30.00 in WNW 8.0 mph 13.0 mph 81 % 0.00 in 0 W/m2
01:12 55.6 °F 49.8 °F 30.00 in WNW 8.0 mph 15.0 mph 81 % 0.00 in 0 W/m2
01:17 55.4 °F 49.7 °F 30.01 in WNW 8.0 mph 15.0 mph 81 % 0.00 in 0 W/m2
01:22 55.2 °F 49.2 °F 30.01 in WNW 7.0 mph 13.0 mph 80 % 0.00 in 0 W/m2
01:27 55.0 °F 49.0 °F 30.02 in NW 8.0 mph 14.0 mph 80 % 0.00 in 0 W/m2
01:32 54.9 °F 48.8 °F 30.02 in NW 8.0 mph 14.0 mph 80 % 0.00 in 0 W/m2
01:37 54.9 °F 48.8 °F 30.02 in WNW 8.0 mph 14.0 mph 80 % 0.00 in 0 W/m2
01:42 54.7 °F 48.6 °F 30.02 in WNW 8.0 mph 13.0 mph 80 % 0.00 in 0 W/m2
01:47 54.7 °F 48.3 °F 30.03 in WNW 8.0 mph 13.0 mph 79 % 0.00 in 0 W/m2
01:52 54.3 °F 48.3 °F 30.03 in WNW 8.0 mph 14.0 mph 80 % 0.00 in 0 W/m2
01:57 54.3 °F 48.3 °F 30.03 in WNW 7.0 mph 14.0 mph 80 % 0.00 in 0 W/m2
02:02 54.1 °F 48.1 °F 30.03 in WNW 7.0 mph 16.0 mph 80 % 0.00 in 0 W/m2
02:07 54.0 °F 47.9 °F 30.02 in WNW 8.0 mph 16.0 mph 80 % 0.00 in 0 W/m2
02:12 53.8 °F 48.1 °F 30.02 in WNW 8.0 mph 15.0 mph 81 % 0.00 in 0 W/m2
02:17 53.6 °F 47.9 °F 30.03 in WNW 7.0 mph 13.0 mph 81 % 0.00 in 0 W/m2
02:22 53.4 °F 48.1 °F 30.03 in NW 6.0 mph 10.0 mph 82 % 0.00 in 0 W/m2
02:27 53.2 °F 47.9 °F 30.02 in WNW 6.0 mph 10.0 mph 82 % 0.00 in 0 W/m2
02:32 53.2 °F 47.9 °F 30.02 in WNW 8.0 mph 14.0 mph 82 % 0.00 in 0 W/m2
02:37 53.1 °F 48.0 °F 30.02 in WNW 8.0 mph 14.0 mph 83 % 0.00 in 0 W/m2
02:42 53.1 °F 48.0 °F 30.03 in WNW 8.0 mph 14.0 mph 83 % 0.00 in 0 W/m2
02:47 53.1 °F 48.4 °F 30.03 in WNW 8.0 mph 14.0 mph 84 % 0.00 in 0 W/m2
02:52 52.9 °F 48.2 °F 30.03 in WNW 9.0 mph 16.0 mph 84 % 0.00 in 0 W/m2
02:57 52.9 °F 48.2 °F 30.03 in WNW 8.0 mph 16.0 mph 84 % 0.00 in 0 W/m2
03:02 52.9 °F 48.2 °F 30.03 in WNW 7.0 mph 15.0 mph 84 % 0.00 in 0 W/m2
03:07 52.7 °F 48.0 °F 30.03 in WNW 7.0 mph 15.0 mph 84 % 0.00 in 0 W/m2
03:12 52.7 °F 48.0 °F 30.03 in WNW 6.0 mph 12.0 mph 84 % 0.00 in 0 W/m2
03:17 52.5 °F 47.8 °F 30.03 in WNW 5.0 mph 12.0 mph 84 % 0.00 in 0 W/m2
03:22 52.5 °F 47.8 °F 30.04 in NW 3.0 mph 7.0 mph 84 % 0.00 in 0 W/m2
03:27 52.3 °F 47.6 °F 30.04 in NW 3.0 mph 7.0 mph 84 % 0.00 in 0 W/m2
03:32 52.3 °F 48.0 °F 30.04 in WNW 4.0 mph 8.0 mph 85 % 0.00 in 0 W/m2
03:38 52.2 °F 47.8 °F 30.04 in WNW 4.0 mph 8.0 mph 85 % 0.00 in 0 W/m2
03:43 52.0 °F 47.6 °F 30.04 in WNW 4.0 mph 11.0 mph 85 % 0.00 in 0 W/m2
03:48 51.8 °F 47.7 °F 30.04 in WNW 5.0 mph 13.0 mph 86 % 0.00 in 0 W/m2
03:54 51.8 °F 47.7 °F 30.04 in WNW 5.0 mph 13.0 mph 86 % 0.00 in 0 W/m2
03:59 51.8 °F 47.7 °F 30.05 in WNW 3.0 mph 8.0 mph 86 % 0.00 in 0 W/m2
04:04 51.6 °F 47.6 °F 30.05 in Calm   4.0 mph 86 % 0.00 in 0 W/m2
04:10 51.4 °F 47.4 °F 30.05 in NW 1.0 mph 5.0 mph 86 % 0.00 in 0 W/m2
04:14 51.3 °F 47.5 °F 30.05 in Calm   5.0 mph 87 % 0.00 in 0 W/m2
04:20 51.3 °F 47.5 °F 30.05 in Calm   4.0 mph 87 % 0.00 in 0 W/m2
04:25 51.1 °F 47.3 °F 30.05 in Calm   4.0 mph 87 % 0.00 in 0 W/m2
04:30 50.9 °F 47.2 °F 30.05 in NW 1.0 mph 6.0 mph 87 % 0.00 in 0 W/m2
04:35 50.9 °F 47.2 °F 30.05 in NW 2.0 mph 6.0 mph 87 % 0.00 in 0 W/m2
04:40 50.7 °F 47.0 °F 30.05 in NW 2.0 mph 8.0 mph 87 % 0.00 in 0 W/m2
04:45 50.7 °F 47.0 °F 30.06 in NW 2.0 mph 8.0 mph 87 % 0.00 in 5 W/m2
04:50 50.5 °F 46.8 °F 30.06 in NW 2.0 mph 6.0 mph 87 % 0.00 in 7 W/m2
04:55 50.5 °F 47.1 °F 30.06 in NW 2.0 mph 7.0 mph 88 % 0.00 in 9 W/m2
05:00 50.4 °F 46.9 °F 30.06 in NW 2.0 mph 7.0 mph 88 % 0.00 in 9 W/m2
05:05 50.4 °F 46.9 °F 30.06 in Calm   4.0 mph 88 % 0.00 in 11 W/m2
05:10 50.4 °F 46.9 °F 30.07 in Calm   3.0 mph 88 % 0.00 in 14 W/m2
05:15 50.2 °F 46.8 °F 30.07 in NW 1.0 mph 6.0 mph 88 % 0.00 in 16 W/m2
05:20 50.2 °F 46.8 °F 30.07 in NW 1.0 mph 6.0 mph 88 % 0.00 in 19 W/m2
05:25 50.2 °F 46.8 °F 30.07 in NW 2.0 mph 7.0 mph 88 % 0.00 in 28 W/m2
05:30 50.4 °F 46.9 °F 30.07 in NW 3.0 mph 7.0 mph 88 % 0.00 in 23 W/m2
05:35 50.5 °F 47.1 °F 30.07 in NW 3.0 mph 7.0 mph 88 % 0.00 in 25 W/m2
05:40 50.7 °F 47.3 °F 30.07 in NW 3.0 mph 7.0 mph 88 % 0.00 in 21 W/m2
05:45 51.1 °F 47.3 °F 30.07 in NW 3.0 mph 7.0 mph 87 % 0.00 in 21 W/m2
05:50 51.3 °F 47.5 °F 30.08 in NW 4.0 mph 8.0 mph 87 % 0.00 in 33 W/m2
05:55 51.3 °F 47.5 °F 30.08 in NW 2.0 mph 8.0 mph 87 % 0.00 in 40 W/m2
06:00 51.4 °F 47.7 °F 30.08 in NNW 2.0 mph 6.0 mph 87 % 0.00 in 111 W/m2
06:05 51.8 °F 48.1 °F 30.08 in NNW 2.0 mph 7.0 mph 87 % 0.00 in 116 W/m2
06:10 52.3 °F 48.3 °F 30.08 in NNW 2.0 mph 7.0 mph 86 % 0.00 in 79 W/m2
06:15 53.1 °F 48.7 °F 30.08 in NNW 2.0 mph 7.0 mph 85 % 0.00 in 116 W/m2
06:20 53.4 °F 48.4 °F 30.08 in NNW 2.0 mph 7.0 mph 83 % 0.00 in 81 W/m2
06:25 54.0 °F 48.9 °F 30.08 in NW 3.0 mph 8.0 mph 83 % 0.00 in 83 W/m2
06:28 54.1 °F 48.8 °F 30.08 in NW 3.0 mph 8.0 mph 82 % 0.00 in 88 W/m2
06:33 54.3 °F 48.9 °F 30.08 in NNW 3.0 mph 8.0 mph 82 % 0.00 in 104 W/m2
06:38 54.7 °F 49.0 °F 30.08 in NNW 2.0 mph 7.0 mph 81 % 0.00 in 102 W/m2
06:43 54.9 °F 49.1 °F 30.08 in NNW 2.0 mph 7.0 mph 81 % 0.00 in 74 W/m2
06:48 55.2 °F 49.2 °F 30.08 in NNW 2.0 mph 7.0 mph 80 % 0.00 in 102 W/m2
06:53 55.6 °F 49.5 °F 30.08 in NW 2.0 mph 7.0 mph 80 % 0.00 in 142 W/m2
06:58 55.9 °F 49.9 °F 30.09 in NW 5.0 mph 12.0 mph 80 % 0.00 in 142 W/m2
07:03 56.3 °F 49.9 °F 30.08 in NW 6.0 mph 14.0 mph 79 % 0.00 in 137 W/m2
07:08 56.7 °F 50.6 °F 30.09 in WNW 5.0 mph 14.0 mph 80 % 0.00 in 100 W/m2
07:13 56.8 °F 50.4 °F 30.09 in WNW 5.0 mph 12.0 mph 79 % 0.00 in 123 W/m2
07:18 56.8 °F 50.4 °F 30.09 in WNW 6.0 mph 12.0 mph 79 % 0.00 in 107 W/m2
07:23 56.7 °F 50.2 °F 30.09 in WNW 7.0 mph 14.0 mph 79 % 0.00 in 72 W/m2
07:28 56.7 °F 50.6 °F 30.10 in WNW 7.0 mph 14.0 mph 80 % 0.00 in 97 W/m2
07:33 56.5 °F 50.4 °F 30.10 in WNW 7.0 mph 14.0 mph 80 % 0.00 in 128 W/m2
07:38 56.5 °F 50.4 °F 30.10 in WNW 7.0 mph 14.0 mph 80 % 0.00 in 137 W/m2
07:43 56.5 °F 50.4 °F 30.10 in WNW 6.0 mph 12.0 mph 80 % 0.00 in 192 W/m2
07:48 56.8 °F 50.7 °F 30.10 in WNW 6.0 mph 14.0 mph 80 % 0.00 in 121 W/m2
07:53 57.0 °F 50.6 °F 30.10 in WNW 6.0 mph 14.0 mph 79 % 0.00 in 125 W/m2
07:58 57.2 °F 50.4 °F 30.10 in WNW 8.0 mph 13.0 mph 78 % 0.00 in 120 W/m2
08:03 57.2 °F 50.1 °F 30.10 in WNW 9.0 mph 19.0 mph 77 % 0.00 in 120 W/m2
08:08 57.2 °F 50.4 °F 30.11 in WNW 8.0 mph 19.0 mph 78 % 0.00 in 120 W/m2
08:13 57.0 °F 49.9 °F 30.11 in WNW 8.0 mph 16.0 mph 77 % 0.00 in 121 W/m2
08:17 57.0 °F 49.9 °F 30.11 in WNW 8.0 mph 16.0 mph 77 % 0.00 in 125 W/m2
08:22 57.2 °F 50.1 °F 30.11 in WNW 8.0 mph 15.0 mph 77 % 0.00 in 531 W/m2
08:27 57.7 °F 50.6 °F 30.11 in WNW 8.0 mph 20.0 mph 77 % 0.00 in 489 W/m2
08:32 58.6 °F 50.4 °F 30.11 in WNW 10.0 mph 21.0 mph 74 % 0.00 in 499 W/m2
08:37 59.4 °F 50.7 °F 30.11 in WNW 11.0 mph 21.0 mph 73 % 0.00 in 552 W/m2
08:42 59.9 °F 50.8 °F 30.11 in WNW 11.0 mph 23.0 mph 72 % 0.00 in 594 W/m2
08:47 59.9 °F 50.5 °F 30.11 in WNW 11.0 mph 23.0 mph 71 % 0.00 in 139 W/m2
08:52 59.7 °F 49.9 °F 30.11 in WNW 11.0 mph 21.0 mph 70 % 0.00 in 253 W/m2
08:57 59.9 °F 50.1 °F 30.11 in WNW 11.0 mph 20.0 mph 70 % 0.00 in 570 W/m2
09:02 60.8 °F 50.6 °F 30.11 in WNW 10.0 mph 20.0 mph 69 % 0.00 in 578 W/m2
09:07 61.3 °F 50.7 °F 30.11 in NW 10.0 mph 20.0 mph 68 % 0.00 in 580 W/m2
09:12 61.9 °F 51.2 °F 30.11 in NW 10.0 mph 18.0 mph 68 % 0.00 in 701 W/m2
09:17 62.4 °F 51.3 °F 30.12 in NW 9.0 mph 16.0 mph 67 % 0.00 in 738 W/m2
09:22 62.6 °F 50.2 °F 30.12 in NW 9.0 mph 16.0 mph 64 % 0.00 in 213 W/m2
09:27 61.9 °F 49.6 °F 30.12 in NW 10.0 mph 19.0 mph 64 % 0.00 in 195 W/m2
09:32 61.9 °F 50.4 °F 30.12 in NW 9.0 mph 19.0 mph 66 % 0.00 in 195 W/m2
09:38 62.4 °F 51.3 °F 30.12 in NW 6.0 mph 13.0 mph 67 % 0.00 in 888 W/m2
09:43 62.8 °F 50.4 °F 30.12 in WNW 8.0 mph 16.0 mph 64 % 0.00 in 802 W/m2
09:48 62.8 °F 50.0 °F 30.13 in WNW 10.0 mph 19.0 mph 63 % 0.00 in 149 W/m2
09:53 63.0 °F 50.2 °F 30.12 in WNW 9.0 mph 19.0 mph 63 % 0.00 in 345 W/m2
09:58 63.1 °F 49.9 °F 30.12 in WNW 9.0 mph 19.0 mph 62 % 0.00 in 206 W/m2
10:03 63.0 °F 50.2 °F 30.13 in WNW 9.0 mph 19.0 mph 63 % 0.00 in 151 W/m2
10:08 62.2 °F 49.5 °F 30.13 in NW 8.0 mph 19.0 mph 63 % 0.00 in 158 W/m2
10:13 61.9 °F 49.6 °F 30.13 in NW 8.0 mph 19.0 mph 64 % 0.00 in 172 W/m2
10:18 61.5 °F 50.1 °F 30.13 in NW 7.0 mph 14.0 mph 66 % 0.00 in 160 W/m2
10:23 61.3 °F 50.3 °F 30.14 in NW 8.0 mph 21.0 mph 67 % 0.00 in 142 W/m2
10:28 60.8 °F 50.2 °F 30.14 in WNW 10.0 mph 21.0 mph 68 % 0.00 in 253 W/m2
10:33 60.6 °F 50.0 °F 30.14 in WNW 8.0 mph 14.0 mph 68 % 0.00 in 237 W/m2
10:38 60.6 °F 50.0 °F 30.14 in WNW 7.0 mph 15.0 mph 68 % 0.00 in 239 W/m2
10:42 60.8 °F 50.2 °F 30.13 in WNW 5.0 mph 15.0 mph 68 % 0.00 in 221 W/m2
10:47 61.0 °F 50.3 °F 30.13 in WNW 4.0 mph 10.0 mph 68 % 0.00 in 225 W/m2
10:52 61.0 °F 49.5 °F 30.14 in WNW 7.0 mph 16.0 mph 66 % 0.00 in 179 W/m2
10:57 61.0 °F 49.5 °F 30.14 in WNW 9.0 mph 16.0 mph 66 % 0.00 in 294 W/m2
11:02 61.0 °F 49.1 °F 30.13 in NW 10.0 mph 18.0 mph 65 % 0.00 in 236 W/m2
11:07 61.3 °F 49.5 °F 30.14 in WNW 10.0 mph 18.0 mph 65 % 0.00 in 213 W/m2
11:12 61.3 °F 49.5 °F 30.14 in WNW 9.0 mph 18.0 mph 65 % 0.00 in 207 W/m2
11:17 61.3 °F 49.5 °F 30.14 in WNW 9.0 mph 19.0 mph 65 % 0.00 in 200 W/m2
11:19 61.2 °F 48.9 °F 30.14 in WNW 10.0 mph 19.0 mph 64 % 0.00 in 204 W/m2
11:24 61.2 °F 48.9 °F 30.14 in WNW 11.0 mph 20.0 mph 64 % 0.00 in 192 W/m2
11:29 61.3 °F 49.1 °F 30.13 in WNW 9.0 mph 20.0 mph 64 % 0.00 in 265 W/m2
11:34 61.9 °F 49.6 °F 30.14 in WNW 10.0 mph 19.0 mph 64 % 0.00 in 308 W/m2
11:39 62.1 °F 49.7 °F 30.14 in WNW 11.0 mph 20.0 mph 64 % 0.00 in 306 W/m2
11:44 62.2 °F 49.9 °F 30.14 in WNW 12.0 mph 21.0 mph 64 % 0.00 in 348 W/m2
11:49 62.2 °F 49.5 °F 30.14 in WNW 12.0 mph 23.0 mph 63 % 0.00 in 276 W/m2
11:50 62.4 °F 49.7 °F 30.14 in WNW 12.0 mph 23.0 mph 63 % 0.00 in 327 W/m2
11:55 62.6 °F 49.4 °F 30.14 in WNW 11.0 mph 21.0 mph 62 % 0.00 in 371 W/m2
12:00 62.8 °F 50.0 °F 30.14 in WNW 10.0 mph 21.0 mph 63 % 0.00 in 383 W/m2
12:05 63.3 °F 50.5 °F 30.14 in WNW 9.0 mph 19.0 mph 63 % 0.00 in 360 W/m2
12:10 63.5 °F 50.7 °F 30.14 in WNW 10.0 mph 20.0 mph 63 % 0.00 in 369 W/m2
12:15 63.5 °F 50.7 °F 30.14 in WNW 12.0 mph 23.0 mph 63 % 0.00 in 318 W/m2
12:20 63.3 °F 50.9 °F 30.14 in WNW 12.0 mph 23.0 mph 64 % 0.00 in 446 W/m2
12:25 63.7 °F 50.8 °F 30.14 in NW 10.0 mph 19.0 mph 63 % 0.00 in 404 W/m2
12:30 63.7 °F 50.8 °F 30.14 in NW 11.0 mph 22.0 mph 63 % 0.00 in 679 W/m2
12:31 63.7 °F 50.8 °F 30.14 in NW 11.0 mph 22.0 mph 63 % 0.00 in 679 W/m2
12:36 64.0 °F 50.8 °F 30.14 in WNW 12.0 mph 22.0 mph 62 % 0.00 in 1051 W/m2
12:41 64.9 °F 51.2 °F 30.14 in WNW 12.0 mph 22.0 mph 61 % 0.00 in 997 W/m2
12:46 65.5 °F 51.2 °F 30.14 in West 12.0 mph 19.0 mph 60 % 0.00 in 1011 W/m2
12:51 66.0 °F 51.3 °F 30.14 in West 13.0 mph 22.0 mph 59 % 0.00 in 998 W/m2
12:56 66.4 °F 51.2 °F 30.13 in WNW 13.0 mph 22.0 mph 58 % 0.00 in 935 W/m2
13:01 66.7 °F 52.0 °F 30.13 in West 11.0 mph 22.0 mph 59 % 0.00 in 935 W/m2
13:06 67.3 °F 52.0 °F 30.13 in WNW 9.0 mph 18.0 mph 58 % 0.00 in 969 W/m2
13:11 67.6 °F 51.9 °F 30.13 in WNW 11.0 mph 19.0 mph 57 % 0.00 in 1034 W/m2
13:16 67.8 °F 52.0 °F 30.14 in WNW 10.0 mph 19.0 mph 57 % 0.00 in 1034 W/m2
13:21 67.8 °F 51.5 °F 30.14 in WNW 10.0 mph 20.0 mph 56 % 0.00 in 1032 W/m2
13:26 67.8 °F 51.5 °F 30.14 in WNW 11.0 mph 22.0 mph 56 % 0.00 in 993 W/m2
13:27 67.8 °F 51.5 °F 30.14 in West 11.0 mph 22.0 mph 56 % 0.00 in 993 W/m2
13:32 68.4 °F 51.6 °F 30.14 in WNW 11.0 mph 22.0 mph 55 % 0.00 in 1121 W/m2
13:38 68.7 °F 51.9 °F 30.14 in WNW 11.0 mph 20.0 mph 55 % 0.00 in 1107 W/m2
13:40 69.1 °F 52.7 °F 30.14 in WNW 11.0 mph 23.0 mph 56 % 0.00 in 1150 W/m2
13:45 69.4 °F 52.1 °F 30.14 in WNW 12.0 mph 23.0 mph 54 % 0.00 in 972 W/m2
13:50 69.3 °F 51.4 °F 30.13 in West 12.0 mph 21.0 mph 53 % 0.00 in 951 W/m2
13:55 69.3 °F 51.4 °F 30.13 in WNW 11.0 mph 18.0 mph 53 % 0.00 in 935 W/m2
14:00 69.3 °F 51.4 °F 30.13 in WNW 11.0 mph 20.0 mph 53 % 0.00 in 967 W/m2
14:05 69.4 °F 52.1 °F 30.13 in WNW 10.0 mph 20.0 mph 54 % 0.00 in 949 W/m2
14:10 69.6 °F 52.2 °F 30.13 in WNW 10.0 mph 22.0 mph 54 % 0.00 in 977 W/m2
14:15 70.0 °F 51.5 °F 30.14 in WNW 12.0 mph 22.0 mph 52 % 0.00 in 946 W/m2
14:20 70.2 °F 51.7 °F 30.13 in WNW 12.0 mph 21.0 mph 52 % 0.00 in 954 W/m2
14:25 70.0 °F 51.5 °F 30.13 in WNW 11.0 mph 19.0 mph 52 % 0.00 in 1042 W/m2
14:30 70.0 °F 52.1 °F 30.13 in WNW 11.0 mph 20.0 mph 53 % 0.00 in 1058 W/m2
14:35 69.6 °F 51.2 °F 30.14 in WNW 11.0 mph 20.0 mph 52 % 0.00 in 255 W/m2
14:40 69.4 °F 51.6 °F 30.14 in WNW 10.0 mph 18.0 mph 53 % 0.00 in 976 W/m2
14:45 69.1 °F 50.7 °F 30.14 in WNW 11.0 mph 21.0 mph 52 % 0.00 in 255 W/m2
14:50 68.4 °F 50.6 °F 30.14 in WNW 12.0 mph 21.0 mph 53 % 0.00 in 244 W/m2
14:55 68.2 °F 50.9 °F 30.14 in WNW 11.0 mph 20.0 mph 54 % 0.00 in 244 W/m2
15:00 68.4 °F 51.1 °F 30.13 in NW 10.0 mph 18.0 mph 54 % 0.00 in 925 W/m2
15:05 68.7 °F 50.9 °F 30.13 in WNW 10.0 mph 19.0 mph 53 % 0.00 in 835 W/m2
15:10 69.1 °F 50.7 °F 30.13 in West 10.0 mph 19.0 mph 52 % 0.00 in 877 W/m2
15:16 69.3 °F 50.9 °F 30.13 in West 10.0 mph 18.0 mph 52 % 0.00 in 898 W/m2
15:21 69.6 °F 51.2 °F 30.13 in West 9.0 mph 19.0 mph 52 % 0.00 in 860 W/m2
15:26 69.6 °F 51.2 °F 30.13 in West 11.0 mph 19.0 mph 52 % 0.00 in 842 W/m2
15:31 69.4 °F 51.6 °F 30.13 in West 11.0 mph 19.0 mph 53 % 0.00 in 819 W/m2
15:36 69.4 °F 50.5 °F 30.13 in West 12.0 mph 23.0 mph 51 % 0.00 in 796 W/m2
15:41 69.6 °F 50.7 °F 30.13 in West 11.0 mph 23.0 mph 51 % 0.00 in 784 W/m2
15:46 69.6 °F 51.2 °F 30.13 in West 10.0 mph 16.0 mph 52 % 0.00 in 775 W/m2
15:51 70.0 °F 51.5 °F 30.13 in West 10.0 mph 16.0 mph 52 % 0.00 in 788 W/m2
15:56 70.3 °F 51.3 °F 30.13 in West 10.0 mph 19.0 mph 51 % 0.00 in 780 W/m2
16:01 70.3 °F 50.8 °F 30.13 in WNW 10.0 mph 21.0 mph 50 % 0.00 in 754 W/m2
16:06 70.2 °F 50.6 °F 30.13 in WNW 12.0 mph 24.0 mph 50 % 0.00 in 761 W/m2
16:11 70.3 °F 51.3 °F 30.13 in WNW 12.0 mph 24.0 mph 51 % 0.00 in 761 W/m2
16:16 70.5 °F 51.0 °F 30.13 in WNW 10.0 mph 19.0 mph 50 % 0.00 in 751 W/m2
16:21 70.5 °F 51.5 °F 30.13 in West 8.0 mph 15.0 mph 51 % 0.00 in 708 W/m2
16:26 70.9 °F 51.3 °F 30.13 in WNW 8.0 mph 15.0 mph 50 % 0.00 in 735 W/m2
16:32 70.9 °F 50.2 °F 30.13 in WNW 10.0 mph 19.0 mph 48 % 0.00 in 803 W/m2
16:37 70.9 °F 50.8 °F 30.13 in WNW 11.0 mph 20.0 mph 49 % 0.00 in 742 W/m2
16:42 71.1 °F 50.9 °F 30.13 in WNW 10.0 mph 20.0 mph 49 % 0.00 in 679 W/m2
16:47 71.1 °F 50.9 °F 30.13 in WNW 9.0 mph 14.0 mph 49 % 0.00 in 766 W/m2
16:52 71.2 °F 50.5 °F 30.13 in WNW 9.0 mph 18.0 mph 48 % 0.00 in 679 W/m2
16:57 71.1 °F 50.9 °F 30.12 in WNW 9.0 mph 18.0 mph 49 % 0.00 in 663 W/m2
17:02 71.1 °F 50.4 °F 30.12 in WNW 10.0 mph 19.0 mph 48 % 0.00 in 652 W/m2
17:07 71.1 °F 50.9 °F 30.12 in WNW 10.0 mph 19.0 mph 49 % 0.00 in 606 W/m2
17:12 71.1 °F 50.9 °F 30.12 in WNW 8.0 mph 16.0 mph 49 % 0.00 in 592 W/m2
17:17 71.1 °F 50.4 °F 30.12 in WNW 9.0 mph 18.0 mph 48 % 0.00 in 589 W/m2
17:22 71.1 °F 49.8 °F 30.12 in WNW 9.0 mph 18.0 mph 47 % 0.00 in 557 W/m2
17:27 71.1 °F 48.6 °F 30.11 in WNW 9.0 mph 15.0 mph 45 % 0.00 in 541 W/m2
17:32 71.1 °F 49.2 °F 30.11 in WNW 10.0 mph 19.0 mph 46 % 0.00 in 529 W/m2
17:37 70.9 °F 49.6 °F 30.11 in WNW 10.0 mph 19.0 mph 47 % 0.00 in 485 W/m2
17:38 70.9 °F 49.1 °F 30.11 in WNW 10.0 mph 19.0 mph 46 % 0.00 in 519 W/m2
17:43 70.7 °F 48.3 °F 30.11 in WNW 10.0 mph 18.0 mph 45 % 0.00 in 496 W/m2
17:45 70.7 °F 48.9 °F 30.11 in West 10.0 mph 18.0 mph 46 % 0.00 in 490 W/m2
17:50 70.3 °F 48.0 °F 30.11 in West 10.0 mph 18.0 mph 45 % 0.00 in 485 W/m2
17:55 70.0 °F 47.7 °F 30.11 in West 10.0 mph 19.0 mph 45 % 0.00 in 508 W/m2
18:00 70.0 °F 48.2 °F 30.11 in West 11.0 mph 20.0 mph 46 % 0.00 in 158 W/m2
18:05 69.3 °F 47.6 °F 30.11 in West 11.0 mph 20.0 mph 46 % 0.00 in 137 W/m2
18:10 68.5 °F 48.1 °F 30.11 in West 11.0 mph 19.0 mph 48 % 0.00 in 260 W/m2
18:15 68.2 °F 47.7 °F 30.11 in West 11.0 mph 19.0 mph 48 % 0.00 in 178 W/m2
18:20 67.8 °F 48.0 °F 30.11 in West 10.0 mph 16.0 mph 49 % 0.00 in 128 W/m2
18:25 67.5 °F 48.2 °F 30.11 in West 8.0 mph 14.0 mph 50 % 0.00 in 142 W/m2
18:30 67.3 °F 49.0 °F 30.11 in West 7.0 mph 13.0 mph 52 % 0.00 in 118 W/m2
18:35 67.1 °F 48.4 °F 30.11 in West 6.0 mph 10.0 mph 51 % 0.00 in 100 W/m2
18:40 66.9 °F 49.2 °F 30.11 in West 5.0 mph 10.0 mph 53 % 0.00 in 97 W/m2
18:45 66.9 °F 49.7 °F 30.11 in West 4.0 mph 8.0 mph 54 % 0.00 in 95 W/m2
18:50 66.9 °F 50.2 °F 30.11 in West 4.0 mph 10.0 mph 55 % 0.00 in 90 W/m2
18:55 66.7 °F 50.1 °F 30.11 in WNW 4.0 mph 11.0 mph 55 % 0.00 in 86 W/m2
19:00 66.7 °F 50.5 °F 30.11 in West 6.0 mph 12.0 mph 56 % 0.00 in 107 W/m2
19:05 66.6 °F 50.8 °F 30.11 in West 7.0 mph 12.0 mph 57 % 0.00 in 107 W/m2
19:10 66.4 °F 51.2 °F 30.11 in West 6.0 mph 11.0 mph 58 % 0.00 in 102 W/m2
19:15 66.4 °F 51.2 °F 30.10 in West 5.0 mph 12.0 mph 58 % 0.00 in 97 W/m2
19:21 66.4 °F 51.6 °F 30.10 in West 5.0 mph 12.0 mph 59 % 0.00 in 100 W/m2
19:26 66.6 °F 52.2 °F 30.11 in West 5.0 mph 10.0 mph 60 % 0.00 in 102 W/m2
19:31 66.6 °F 52.2 °F 30.11 in West 6.0 mph 10.0 mph 60 % 0.00 in 137 W/m2
19:36 66.6 °F 52.7 °F 30.10 in WSW 6.0 mph 10.0 mph 61 % 0.00 in 134 W/m2
19:41 66.7 °F 52.9 °F 30.10 in West 5.0 mph 9.0 mph 61 % 0.00 in 86 W/m2
19:46 66.6 °F 52.7 °F 30.10 in West 6.0 mph 13.0 mph 61 % 0.00 in 91 W/m2
19:51 66.6 °F 53.1 °F 30.10 in West 7.0 mph 13.0 mph 62 % 0.00 in 100 W/m2
19:56 66.4 °F 53.0 °F 30.10 in West 7.0 mph 13.0 mph 62 % 0.00 in 100 W/m2
20:01 66.2 °F 53.2 °F 30.10 in West 8.0 mph 14.0 mph 63 % 0.00 in 102 W/m2
20:06 66.0 °F 53.1 °F 30.10 in West 9.0 mph 14.0 mph 63 % 0.00 in 116 W/m2
20:11 66.0 °F 53.1 °F 30.10 in WNW 8.0 mph 13.0 mph 63 % 0.00 in 79 W/m2
20:16 66.0 °F 53.5 °F 30.11 in WNW 8.0 mph 13.0 mph 64 % 0.00 in 67 W/m2
20:21 65.8 °F 53.3 °F 30.11 in WNW 7.0 mph 13.0 mph 64 % 0.00 in 53 W/m2
20:26 65.7 °F 53.1 °F 30.11 in WNW 6.0 mph 12.0 mph 64 % 0.00 in 32 W/m2
20:31 65.5 °F 53.0 °F 30.11 in WNW 6.0 mph 12.0 mph 64 % 0.00 in 32 W/m2
20:32 65.3 °F 53.2 °F 30.11 in West 6.0 mph 12.0 mph 65 % 0.00 in 30 W/m2
20:37 65.1 °F 53.5 °F 30.11 in West 4.0 mph 10.0 mph 66 % 0.00 in 30 W/m2
20:43 64.9 °F 52.9 °F 30.11 in West 4.0 mph 8.0 mph 65 % 0.00 in 35 W/m2
20:48 64.8 °F 52.7 °F 30.11 in West 5.0 mph 10.0 mph 65 % 0.00 in 33 W/m2
20:53 64.6 °F 52.5 °F 30.11 in West 6.0 mph 13.0 mph 65 % 0.00 in 40 W/m2
20:58 64.4 °F 52.4 °F 30.11 in West 4.0 mph 13.0 mph 65 % 0.00 in 32 W/m2
21:03 64.4 °F 52.8 °F 30.11 in West 3.0 mph 6.0 mph 66 % 0.00 in 30 W/m2
21:08 64.2 °F 52.6 °F 30.11 in West 1.0 mph 6.0 mph 66 % 0.00 in 30 W/m2
21:13 64.0 °F 52.4 °F 30.11 in West 1.0 mph 5.0 mph 66 % 0.00 in 28 W/m2
21:18 64.0 °F 52.9 °F 30.11 in West 1.0 mph 5.0 mph 67 % 0.00 in 19 W/m2
21:23 63.9 °F 52.3 °F 30.11 in West 1.0 mph 5.0 mph 66 % 0.00 in 16 W/m2
21:28 63.7 °F 52.5 °F 30.11 in West 1.0 mph 5.0 mph 67 % 0.00 in 12 W/m2
21:33 63.3 °F 52.2 °F 30.11 in Calm   2.0 mph 67 % 0.00 in 9 W/m2
21:38 63.1 °F 52.4 °F 30.11 in Calm   4.0 mph 68 % 0.00 in 7 W/m2
21:43 63.0 °F 52.2 °F 30.10 in Calm   4.0 mph 68 % 0.00 in 0 W/m2
21:48 62.8 °F 52.1 °F 30.10 in Calm   3.0 mph 68 % 0.00 in 0 W/m2
21:53 62.6 °F 52.3 °F 30.10 in Calm   1.0 mph 69 % 0.00 in 0 W/m2
21:58 62.4 °F 52.1 °F 30.10 in Calm     69 % 0.00 in 0 W/m2
22:03 62.2 °F 52.3 °F 30.10 in Calm   1.0 mph 70 % 0.00 in 0 W/m2
22:08 61.9 °F 52.0 °F 30.10 in Calm   2.0 mph 70 % 0.00 in 0 W/m2
22:13 61.7 °F 52.2 °F 30.10 in Calm   2.0 mph 71 % 0.00 in 0 W/m2
22:18 61.3 °F 51.9 °F 30.10 in West 1.0 mph 2.0 mph 71 % 0.00 in 0 W/m2
22:23 61.3 °F 51.9 °F 30.10 in West 1.0 mph 2.0 mph 71 % 0.00 in 0 W/m2
22:24 61.3 °F 51.9 °F 30.10 in West 1.0 mph 2.0 mph 71 % 0.00 in 0 W/m2
22:29 61.3 °F 51.9 °F 30.09 in Calm   2.0 mph 71 % 0.00 in 0 W/m2
22:34 61.2 °F 52.1 °F 30.09 in Calm   2.0 mph 72 % 0.00 in 0 W/m2
22:39 61.2 °F 52.1 °F 30.09 in Calm   2.0 mph 72 % 0.00 in 0 W/m2
22:44 61.0 °F 52.3 °F 30.09 in Calm   2.0 mph 73 % 0.00 in 0 W/m2
22:49 61.0 °F 52.3 °F 30.09 in Calm     73 % 0.00 in 0 W/m2
22:54 60.6 °F 52.3 °F 30.09 in Calm   2.0 mph 74 % 0.00 in 0 W/m2
22:59 60.4 °F 52.8 °F 30.09 in Calm   2.0 mph 76 % 0.00 in 0 W/m2
23:04 60.1 °F 52.5 °F 30.10 in West 1.0 mph 4.0 mph 76 % 0.00 in 0 W/m2
23:09 60.1 °F 52.8 °F 30.10 in West 2.0 mph 5.0 mph 77 % 0.00 in 0 W/m2
23:14 59.7 °F 52.5 °F 30.10 in West 2.0 mph 5.0 mph 77 % 0.00 in 0 W/m2
23:19 59.5 °F 52.7 °F 30.10 in West 3.0 mph 5.0 mph 78 % 0.00 in 0 W/m2
23:24 59.4 °F 52.5 °F 30.10 in West 2.0 mph 5.0 mph 78 % 0.00 in 0 W/m2
23:29 59.2 °F 52.7 °F 30.10 in West 1.0 mph 5.0 mph 79 % 0.00 in 0 W/m2
23:34 59.0 °F 52.5 °F 30.10 in West 1.0 mph 5.0 mph 79 % 0.00 in 0 W/m2
23:39 59.0 °F 52.8 °F 30.09 in Calm   1.0 mph 80 % 0.00 in 0 W/m2
23:44 58.8 °F 52.7 °F 30.09 in Calm     80 % 0.00 in 0 W/m2
23:49 58.6 °F 52.5 °F 30.09 in Calm     80 % 0.00 in 0 W/m2
23:52 58.6 °F 52.8 °F 30.09 in Calm     81 % 0.00 in 0 W/m2
23:57 58.6 °F 52.8 °F 30.09 in Calm     81 % 0.00 in 0 W/m2
Delerius-Weather
Compliments of Weather Underground - 2.25 mb

Data updates at regular intervals.